Time;durP1;ratioP1;P1;durP2;ratioP2;P2;SDS_P1;SDS_P2;PMS_P1;PMS_P2;Temp;Humidity;BMP_temperature;BMP_pressure;BME280_temperature;BME280_humidity;BME280_pressure;Samples;Min_cycle;Max_cycle;Signal;HPM_P1;HPM_P2
2022/03/01 00:00:40;;;;;;;;;;;;;;;16.54;40.04;101353.84;5077251;28;831;-64
2022/03/01 00:03:06;;;;;;;;;;;;;;;16.60;40.07;101353.59;5078089;28;758;-64
2022/03/01 00:05:31;;;;;;;;;;;;;;;16.56;40.03;101357.13;5077893;28;1976;-65
2022/03/01 00:07:57;;;;;;;;;;;;;;;16.87;39.39;101362.91;5077409;28;824;-64
2022/03/01 00:10:22;;;;;;;;;;;;;;;17.17;38.81;101362.38;5077586;28;833;-64
2022/03/01 00:12:48;;;;;;;;;;;;;;;17.35;38.49;101368.53;5077438;28;829;-64
2022/03/01 00:15:13;;;;;;;;;;;;;;;17.38;38.01;101357.84;5077334;28;1139;-66
2022/03/01 00:17:39;;;;;;;;;;;;;;;17.04;39.02;101360.91;5077287;28;985;-65
2022/03/01 00:20:04;;;;;;;;;;;;;;;16.78;39.23;101362.56;5077099;28;812;-65
2022/03/01 00:22:30;;;;;;;;;;;;;;;16.56;39.78;101368.97;5077656;28;777;-64
2022/03/01 00:24:55;;;;;;;;;;;;;;;16.51;40.19;101368.91;5077638;28;797;-68
2022/03/01 00:27:21;;;;;;;;;;;;;;;16.80;39.53;101384.28;5077413;28;1905;-69
2022/03/01 00:29:46;;;;;;;;;;;;;;;17.74;37.87;101373.72;5077402;28;897;-64
2022/03/01 00:32:12;;;;;;;;;;;;;;;17.68;37.78;101372.06;5077259;28;1017;-65
2022/03/01 00:34:37;;;;;;;;;;;;;;;16.96;38.86;101377.88;5077082;28;883;-64
2022/03/01 00:37:03;;;;;;;;;;;;;;;16.58;39.68;101387.94;5073416;28;1507;-66
2022/03/01 00:39:28;;;;;;;;;;;;;;;16.65;39.89;101390.44;5075604;28;1472;-65
2022/03/01 00:41:53;;;;;;;;;;;;;;;16.79;39.48;101390.84;5075108;28;1285;-66
2022/03/01 00:44:19;;;;;;;;;;;;;;;17.06;39.18;101388.94;5076087;28;1296;-66
2022/03/01 00:46:44;;;;;;;;;;;;;;;17.48;38.14;101389.28;5075972;28;1975;-66
2022/03/01 00:49:10;;;;;;;;;;;;;;;17.52;37.81;101390.41;5076478;28;1158;-65
2022/03/01 00:51:35;;;;;;;;;;;;;;;17.43;38.26;101399.13;5076072;28;1194;-65
2022/03/01 00:54:01;;;;;;;;;;;;;;;16.90;39.01;101403.63;5074686;28;1226;-63
2022/03/01 00:56:30;;;;;;;;;;;;;;;16.63;39.97;101400.88;5075324;28;1123;-64
2022/03/01 00:58:56;;;;;;;;;;;;;;;16.50;40.26;101418.59;5076710;28;943;-66
2022/03/01 01:01:21;;;;;;;;;;;;;;;16.46;40.30;101418.25;5076333;28;904;-65
2022/03/01 01:03:47;;;;;;;;;;;;;;;16.49;40.07;101422.41;5076632;28;888;-64
2022/03/01 01:06:12;;;;;;;;;;;;;;;16.67;39.96;101424.78;5076718;28;1910;-64
2022/03/01 01:08:38;;;;;;;;;;;;;;;16.99;39.37;101431.47;5076662;28;874;-63
2022/03/01 01:11:03;;;;;;;;;;;;;;;17.54;38.14;101418.44;5076239;28;750;-62
2022/03/01 01:13:29;;;;;;;;;;;;;;;17.79;37.55;101435.13;5076150;28;951;-61
2022/03/01 01:15:55;;;;;;;;;;;;;;;17.30;38.30;101427.06;5075863;28;1088;-62
2022/03/01 01:18:20;;;;;;;;;;;;;;;16.92;39.12;101428.94;5076756;28;761;-62
2022/03/01 01:20:45;;;;;;;;;;;;;;;16.63;39.69;101426.41;5076845;28;812;-61
2022/03/01 01:23:11;;;;;;;;;;;;;;;16.52;40.20;101428.22;5076318;28;741;-61
2022/03/01 01:25:37;;;;;;;;;;;;;;;16.52;40.05;101432.88;5076178;28;1894;-63
2022/03/01 01:28:02;;;;;;;;;;;;;;;16.58;40.02;101440.09;5076403;28;793;-63
2022/03/01 01:30:28;;;;;;;;;;;;;;;16.80;39.71;101428.22;5075704;28;847;-63
2022/03/01 01:32:54;;;;;;;;;;;;;;;17.27;38.84;101439.41;5070584;28;841;-62
2022/03/01 01:35:20;;;;;;;;;;;;;;;17.66;38.07;101441.09;5076341;28;853;-62
2022/03/01 01:37:46;;;;;;;;;;;;;;;17.70;37.73;101442.22;5076069;28;968;-62
2022/03/01 01:40:13;;;;;;;;;;;;;;;17.22;38.63;101453.13;5076335;28;1490;-63
2022/03/01 01:42:38;;;;;;;;;;;;;;;16.71;39.79;101447.91;5076137;28;1415;-62
2022/03/01 01:45:04;;;;;;;;;;;;;;;16.51;40.25;101448.53;5076353;28;830;-62
2022/03/01 01:47:29;;;;;;;;;;;;;;;16.33;40.44;101452.41;5075797;28;2016;-62
2022/03/01 01:49:55;;;;;;;;;;;;;;;16.30;40.62;101455.69;5076011;28;803;-62
2022/03/01 01:52:20;;;;;;;;;;;;;;;16.52;40.22;101460.31;5076272;28;790;-63
2022/03/01 01:54:45;;;;;;;;;;;;;;;16.81;39.80;101452.69;5075874;28;845;-63
2022/03/01 01:57:18;;;;;;;;;;;;;;;17.07;39.20;101455.75;5076066;28;918;-62
2022/03/01 01:59:44;;;;;;;;;;;;;;;17.37;38.51;101449.66;5076222;28;790;-63
2022/03/01 02:02:11;;;;;;;;;;;;;;;17.44;38.54;101450.25;5075532;28;860;-62
2022/03/01 02:04:36;;;;;;;;;;;;;;;17.21;38.92;101450.66;5076057;28;785;-62
2022/03/01 02:07:02;;;;;;;;;;;;;;;16.70;39.66;101435.25;5075769;28;1981;-62
2022/03/01 02:09:27;;;;;;;;;;;;;;;16.55;40.10;101443.31;5076114;28;758;-63
2022/03/01 02:11:53;;;;;;;;;;;;;;;16.40;40.60;101436.59;5075784;28;971;-63
2022/03/01 02:14:18;;;;;;;;;;;;;;;16.43;40.67;101429.75;5075640;28;1068;-63
2022/03/01 02:16:43;;;;;;;;;;;;;;;17.17;38.88;101422.03;5075322;28;864;-63
2022/03/01 02:19:10;;;;;;;;;;;;;;;18.05;37.01;101437.22;5075737;28;864;-63
2022/03/01 02:21:36;;;;;;;;;;;;;;;17.07;38.66;101439.25;5076105;28;1010;-63
2022/03/01 02:24:01;;;;;;;;;;;;;;;16.58;39.99;101431.84;5077843;28;852;-63
2022/03/01 02:26:27;;;;;;;;;;;;;;;16.29;40.21;101443.03;5079633;28;1897;-63
2022/03/01 02:28:52;;;;;;;;;;;;;;;16.37;40.67;101437.09;5072981;28;869;-63
2022/03/01 02:31:18;;;;;;;;;;;;;;;16.60;40.14;101441.47;5079060;28;867;-63
2022/03/01 02:33:43;;;;;;;;;;;;;;;16.89;39.75;101444.00;5080290;28;897;-63
2022/03/01 02:36:08;;;;;;;;;;;;;;;17.88;37.27;101434.59;5079698;28;817;-63
2022/03/01 02:38:34;;;;;;;;;;;;;;;17.30;38.21;101440.00;5079248;28;730;-63
2022/03/01 02:40:59;;;;;;;;;;;;;;;16.67;39.75;101441.28;5079435;28;855;-63
2022/03/01 02:43:25;;;;;;;;;;;;;;;16.43;40.34;101441.56;5079883;28;749;-63
2022/03/01 02:45:50;;;;;;;;;;;;;;;16.37;40.67;101455.50;5078716;28;1906;-63
2022/03/01 02:48:16;;;;;;;;;;;;;;;16.41;40.35;101441.00;5079523;28;1463;-63
2022/03/01 02:50:41;;;;;;;;;;;;;;;16.67;40.14;101441.28;5079755;28;711;-63
2022/03/01 02:53:06;;;;;;;;;;;;;;;17.09;39.05;101450.78;5078745;28;818;-63
2022/03/01 02:55:32;;;;;;;;;;;;;;;17.34;38.31;101430.94;5079499;28;838;-63
2022/03/01 02:57:57;;;;;;;;;;;;;;;17.45;38.09;101427.19;5079173;28;738;-64
2022/03/01 03:00:23;;;;;;;;;;;;;;;17.27;38.29;101430.34;5078777;28;922;-63
2022/03/01 03:02:48;;;;;;;;;;;;;;;16.88;39.34;101430.50;5079269;28;769;-63
2022/03/01 03:05:14;;;;;;;;;;;;;;;16.61;39.90;101436.81;5078741;28;1901;-64
2022/03/01 03:07:40;;;;;;;;;;;;;;;16.40;40.56;101433.84;5078840;28;891;-64
2022/03/01 03:10:06;;;;;;;;;;;;;;;16.43;40.27;101441.56;5079148;28;805;-64
2022/03/01 03:12:32;;;;;;;;;;;;;;;16.88;39.23;101436.84;5078729;28;909;-64
2022/03/01 03:14:58;;;;;;;;;;;;;;;17.28;38.68;101434.75;5078608;28;980;-64
2022/03/01 03:17:23;;;;;;;;;;;;;;;17.41;38.39;101428.78;5078814;28;850;-64
2022/03/01 03:19:49;;;;;;;;;;;;;;;17.03;38.80;101438.94;5078194;28;844;-64
2022/03/01 03:22:14;;;;;;;;;;;;;;;16.70;39.64;101435.25;5078472;28;772;-64
2022/03/01 03:24:43;;;;;;;;;;;;;;;16.32;40.33;101431.53;5078889;28;815;-63
2022/03/01 03:27:08;;;;;;;;;;;;;;;16.18;40.80;101442.06;5078437;28;1910;-64
2022/03/01 03:29:34;;;;;;;;;;;;;;;16.51;40.30;101436.69;5078585;28;830;-64
2022/03/01 03:31:59;;;;;;;;;;;;;;;16.86;39.59;101438.19;5078336;28;885;-63
2022/03/01 03:34:25;;;;;;;;;;;;;;;17.18;38.82;101431.91;5077588;28;1391;-64
2022/03/01 03:36:50;;;;;;;;;;;;;;;17.47;37.94;101432.41;5077625;28;864;-64
2022/03/01 03:39:15;;;;;;;;;;;;;;;17.51;37.83;101424.47;5078372;28;868;-63
2022/03/01 03:41:41;;;;;;;;;;;;;;;17.23;38.34;101421.78;5078357;28;924;-63
2022/03/01 03:44:06;;;;;;;;;;;;;;;16.80;39.38;101422.72;5078021;28;841;-63
2022/03/01 03:46:32;;;;;;;;;;;;;;;16.52;39.99;101422.72;5077679;28;1988;-62
2022/03/01 03:48:57;;;;;;;;;;;;;;;16.31;40.68;101427.13;5078455;28;825;-63
2022/03/01 03:51:23;;;;;;;;;;;;;;;16.50;40.19;101429.56;5078223;28;932;-62
2022/03/01 03:53:48;;;;;;;;;;;;;;;16.80;39.60;101412.56;5078197;28;879;-62
2022/03/01 03:56:14;;;;;;;;;;;;;;;17.27;38.38;101411.91;5077920;28;750;-62
2022/03/01 03:58:39;;;;;;;;;;;;;;;17.57;37.84;101417.91;5077714;28;824;-61
2022/03/01 04:01:05;;;;;;;;;;;;;;;17.53;37.68;101403.03;5077923;28;874;-62
2022/03/01 04:03:30;;;;;;;;;;;;;;;17.09;38.74;101399.41;5077855;28;801;-62
2022/03/01 04:05:56;;;;;;;;;;;;;;;16.70;39.61;101396.00;5110028;28;1973;-62
2022/03/01 04:08:21;;;;;;;;;;;;;;;16.29;40.20;101396.38;5077891;28;841;-62
2022/03/01 04:10:47;;;;;;;;;;;;;;;16.23;40.66;101391.94;5077671;28;800;-62
2022/03/01 04:13:13;;;;;;;;;;;;;;;16.47;40.27;101391.66;5077521;28;860;-62
2022/03/01 04:15:38;;;;;;;;;;;;;;;16.81;39.29;101396.94;5077215;28;1116;-63
2022/03/01 04:18:03;;;;;;;;;;;;;;;17.26;38.27;101393.78;5077538;28;798;-64
2022/03/01 04:20:29;;;;;;;;;;;;;;;17.38;37.89;101379.84;5110681;28;773;-62
2022/03/01 04:22:54;;;;;;;;;;;;;;;16.89;38.86;101385.50;5076929;28;804;-62
2022/03/01 04:25:20;;;;;;;;;;;;;;;16.53;39.61;101390.59;5109786;28;1902;-62
2022/03/01 04:27:45;;;;;;;;;;;;;;;16.46;40.07;101398.22;5077697;28;895;-63
2022/03/01 04:30:11;;;;;;;;;;;;;;;16.54;39.90;101395.03;5076551;28;1170;-64
2022/03/01 04:32:37;;;;;;;;;;;;;;;16.79;39.21;101396.34;5108742;28;1286;-63
2022/03/01 04:35:03;;;;;;;;;;;;;;;17.24;38.34;101419.88;5077125;28;844;-64
2022/03/01 04:37:28;;;;;;;;;;;;;;;17.61;37.69;101438.28;5076727;28;871;-63
2022/03/01 04:39:54;;;;;;;;;;;;;;;17.39;37.99;101450.25;5076430;28;1568;-61
2022/03/01 04:42:19;;;;;;;;;;;;;;;16.90;39.03;101466.81;5077062;28;899;-60
2022/03/01 04:44:44;;;;;;;;;;;;;;;16.64;39.37;101472.00;5076556;28;900;-60
2022/03/01 04:47:10;;;;;;;;;;;;;;;16.35;39.87;101476.88;5076627;28;1902;-59
2022/03/01 04:49:35;;;;;;;;;;;;;;;16.38;39.99;101490.91;5076770;28;898;-59
2022/03/01 04:52:01;;;;;;;;;;;;;;;16.28;40.42;101487.19;5076299;28;1143;-59
2022/03/01 04:54:26;;;;;;;;;;;;;;;16.82;39.31;101486.50;5075870;28;1193;-61
2022/03/01 04:56:52;;;;;;;;;;;;;;;17.31;38.09;101483.72;5076888;28;760;-61
2022/03/01 04:59:17;;;;;;;;;;;;;;;17.91;36.71;101480.91;5076365;28;746;-59
2022/03/01 05:01:43;;;;;;;;;;;;;;;17.70;37.08;101474.41;5076148;28;1080;-61
2022/03/01 05:04:08;;;;;;;;;;;;;;;17.05;38.15;101482.63;5076646;28;765;-59
2022/03/01 05:06:34;;;;;;;;;;;;;;;16.69;39.00;101483.06;5074333;28;1966;-60
2022/03/01 05:08:59;;;;;;;;;;;;;;;16.60;39.43;101501.88;5076319;28;1185;-59
2022/03/01 05:11:24;;;;;;;;;;;;;;;16.26;40.83;101495.69;5074983;28;1063;-60
2022/03/01 05:13:50;;;;;;;;;;;;;;;17.57;37.55;101489.41;5076254;28;835;-65
2022/03/01 05:16:15;;;;;;;;;;;;;;;17.04;38.63;101506.53;5076297;28;1028;-65
2022/03/01 05:18:41;;;;;;;;;;;;;;;17.14;38.75;101515.97;5076174;28;1107;-64
2022/03/01 05:21:06;;;;;;;;;;;;;;;17.90;36.94;101513.03;5076298;28;792;-63
2022/03/01 05:23:32;;;;;;;;;;;;;;;18.22;36.17;101525.13;5076590;28;737;-64
2022/03/01 05:25:59;;;;;;;;;;;;;;;17.77;37.28;101513.50;5075994;28;1969;-63
2022/03/01 05:28:24;;;;;;;;;;;;;;;17.26;38.30;101527.63;5074679;28;1160;-64
2022/03/01 05:30:50;;;;;;;;;;;;;;;16.98;38.54;101540.53;5076472;28;804;-65
2022/03/01 05:33:15;;;;;;;;;;;;;;;16.60;40.12;101547.72;5076020;28;789;-63
2022/03/01 05:35:42;;;;;;;;;;;;;;;17.60;37.77;101541.16;5076258;28;845;-64
2022/03/01 05:38:09;;;;;;;;;;;;;;;17.13;38.56;101544.53;5076406;28;759;-64
2022/03/01 05:40:35;;;;;;;;;;;;;;;16.77;39.16;101548.50;5075572;28;861;-64
2022/03/01 05:43:00;;;;;;;;;;;;;;;16.63;39.79;101551.88;5076304;28;806;-63
2022/03/01 05:45:26;;;;;;;;;;;;;;;17.00;39.18;101541.13;5075941;28;1905;-63
2022/03/01 05:47:52;;;;;;;;;;;;;;;18.16;36.49;101550.94;5076093;28;841;-62
2022/03/01 05:50:17;;;;;;;;;;;;;;;17.47;37.79;101541.56;5075575;28;711;-63
2022/03/01 05:52:43;;;;;;;;;;;;;;;16.95;38.69;101546.53;5075895;28;930;-65
2022/03/01 05:55:08;;;;;;;;;;;;;;;16.73;39.59;101558.34;5076129;28;897;-63
2022/03/01 05:57:34;;;;;;;;;;;;;;;16.67;39.87;101555.78;5075838;28;907;-66
2022/03/01 05:59:59;;;;;;;;;;;;;;;17.20;38.59;101556.16;5079784;28;761;-61
2022/03/01 06:02:25;;;;;;;;;;;;;;;16.96;39.10;101558.34;5079908;28;898;-62
2022/03/01 06:04:51;;;;;;;;;;;;;;;16.71;39.52;101557.75;5111665;28;845;-63
2022/03/01 06:07:16;;;;;;;;;;;;;;;16.64;39.69;101557.13;5080166;28;1978;-62
2022/03/01 06:09:41;;;;;;;;;;;;;;;16.55;39.97;101553.16;5080116;28;722;-63
2022/03/01 06:12:07;;;;;;;;;;;;;;;16.77;39.48;101553.16;5079602;28;981;-63
2022/03/01 06:14:32;;;;;;;;;;;;;;;17.33;38.21;101547.47;5079382;28;1001;-63
2022/03/01 06:16:58;;;;;;;;;;;;;;;17.69;37.31;101550.56;5079557;28;874;-62
2022/03/01 06:19:23;;;;;;;;;;;;;;;17.81;37.39;101552.31;5079511;28;787;-66
2022/03/01 06:21:49;;;;;;;;;;;;;;;17.76;37.33;101550.34;5079685;28;793;-65
2022/03/01 06:24:14;;;;;;;;;;;;;;;17.36;38.01;101557.97;5079672;28;1150;-61
2022/03/01 06:26:40;;;;;;;;;;;;;;;16.99;38.70;101558.69;5079449;28;1963;-63
2022/03/01 06:29:05;;;;;;;;;;;;;;;16.70;39.33;101558.84;5079903;28;1095;-61
2022/03/01 06:31:30;;;;;;;;;;;;;;;16.48;39.90;101558.84;5079027;28;838;-61
2022/03/01 06:33:56;;;;;;;;;;;;;;;16.85;39.66;101563.69;5079200;28;758;-63
2022/03/01 06:36:22;;;;;;;;;;;;;;;17.37;38.46;101562.38;5079156;28;830;-62
2022/03/01 06:38:48;;;;;;;;;;;;;;;17.70;37.38;101560.50;5078051;28;1306;-66
2022/03/01 06:41:13;;;;;;;;;;;;;;;17.79;37.42;101561.69;5078731;28;1348;-67
2022/03/01 06:43:38;;;;;;;;;;;;;;;17.71;37.77;101570.41;5078223;28;1263;-64
2022/03/01 06:46:04;;;;;;;;;;;;;;;17.25;38.16;101557.03;5077858;28;1902;-68
2022/03/01 06:48:29;;;;;;;;;;;;;;;17.02;38.73;101560.91;5077887;28;1263;-68
2022/03/01 06:50:55;;;;;;;;;;;;;;;16.74;39.60;101561.91;5082353;28;1391;-66
2022/03/01 06:53:20;;;;;;;;;;;;;;;16.80;39.66;101566.38;5078273;28;1240;-68
2022/03/01 06:55:46;;;;;;;;;;;;;;;16.87;39.38;101560.69;5080197;28;1372;-66
2022/03/01 06:58:11;;;;;;;;;;;;;;;16.84;39.53;101555.72;5078785;28;1165;-63
2022/03/01 07:00:37;;;;;;;;;;;;;;;16.83;39.67;101556.78;5078068;28;1349;-64
2022/03/01 07:03:03;;;;;;;;;;;;;;;16.92;39.32;101553.38;5076427;28;1547;-68
2022/03/01 07:05:28;;;;;;;;;;;;;;;17.18;39.06;101547.31;5077934;28;1901;-66
2022/03/01 07:07:54;;;;;;;;;;;;;;;17.41;38.19;101538.78;5078134;28;1542;-68
2022/03/01 07:10:19;;;;;;;;;;;;;;;17.50;38.28;101541.03;5077636;28;1270;-66
2022/03/01 07:12:46;;;;;;;;;;;;;;;17.27;38.88;101546.59;5072459;28;1360;-66
2022/03/01 07:15:11;;;;;;;;;;;;;;;16.88;39.63;101552.22;5080022;28;1228;-65
2022/03/01 07:17:37;;;;;;;;;;;;;;;16.74;39.63;101546.25;5078432;28;969;-65
2022/03/01 07:20:04;;;;;;;;;;;;;;;16.61;39.93;101552.16;5078274;28;1137;-67
2022/03/01 07:22:29;;;;;;;;;;;;;;;16.72;39.79;101548.44;5076752;28;1433;-66
2022/03/01 07:24:55;;;;;;;;;;;;;;;17.20;39.00;101548.72;5077715;28;1218;-67
2022/03/01 07:27:20;;;;;;;;;;;;;;;18.13;37.30;101553.13;5077196;28;1986;-65
2022/03/01 07:29:46;;;;;;;;;;;;;;;17.72;37.51;101555.53;5078352;28;1301;-67
2022/03/01 07:32:11;;;;;;;;;;;;;;;16.83;39.41;101571.38;5078111;28;1264;-67
2022/03/01 07:34:37;;;;;;;;;;;;;;;16.64;39.63;101562.63;5075680;28;1320;-68
2022/03/01 07:37:02;;;;;;;;;;;;;;;16.48;40.47;101558.84;5075623;28;1306;-64
2022/03/01 07:39:28;;;;;;;;;;;;;;;16.53;40.72;101563.56;5080089;28;1190;-65
2022/03/01 07:41:53;;;;;;;;;;;;;;;16.72;40.07;101570.41;5076905;28;1213;-63
2022/03/01 07:44:19;;;;;;;;;;;;;;;17.11;39.43;101558.56;5077610;28;1182;-61
2022/03/01 07:46:44;;;;;;;;;;;;;;;17.32;39.11;101570.59;5076131;28;1902;-66
2022/03/01 07:49:09;;;;;;;;;;;;;;;17.30;38.95;101564.50;5077641;28;837;-67
2022/03/01 07:51:35;;;;;;;;;;;;;;;17.07;39.41;101571.97;5076436;28;1261;-67
2022/03/01 07:54:00;;;;;;;;;;;;;;;16.88;40.10;101589.84;5074874;28;1458;-67
2022/03/01 07:56:26;;;;;;;;;;;;;;;16.62;40.68;101589.50;5076483;28;1740;-66
2022/03/01 07:58:51;;;;;;;;;;;;;;;16.58;40.82;101593.84;5074324;28;1480;-68
2022/03/01 08:01:17;;;;;;;;;;;;;;;16.76;40.24;101581.72;5075654;28;1495;-67
2022/03/01 08:03:42;;;;;;;;;;;;;;;16.77;40.40;101597.09;5076779;28;1135;-70
2022/03/01 08:06:08;;;;;;;;;;;;;;;16.82;40.36;101596.34;5077770;28;1985;-67
2022/03/01 08:08:34;;;;;;;;;;;;;;;17.37;39.44;101603.59;5077527;28;1569;-69
2022/03/01 08:10:59;;;;;;;;;;;;;;;17.91;38.19;101599.22;5076122;28;1202;-70
2022/03/01 08:13:25;;;;;;;;;;;;;;;18.16;37.47;101603.22;5077071;28;1163;-65
2022/03/01 08:15:50;;;;;;;;;;;;;;;17.74;38.37;101608.38;5068570;28;1297;-65
2022/03/01 08:18:16;;;;;;;;;;;;;;;17.29;38.87;101612.31;5064636;28;1703;-66
2022/03/01 08:20:41;;;;;;;;;;;;;;;16.96;39.92;101611.41;5041294;28;1171;-64
2022/03/01 08:23:07;;;;;;;;;;;;;;;16.85;39.81;101612.31;5060838;28;1213;-66
2022/03/01 08:25:33;;;;;;;;;;;;;;;16.73;40.08;101618.78;5062730;28;1980;-67
2022/03/01 08:27:58;;;;;;;;;;;;;;;17.62;38.72;101622.28;5052627;28;1286;-70
2022/03/01 08:30:24;;;;;;;;;;;;;;;17.75;38.25;101621.06;5053950;28;1377;-71
2022/03/01 08:32:50;;;;;;;;;;;;;;;17.19;39.24;101624.03;5060116;28;1327;-64
2022/03/01 08:35:15;;;;;;;;;;;;;;;16.79;39.33;101630.66;5055717;28;1544;-66
2022/03/01 08:37:40;;;;;;;;;;;;;;;16.67;40.78;101639.00;5062695;28;1305;-67
2022/03/01 08:40:06;;;;;;;;;;;;;;;17.30;39.40;101635.16;5060488;28;1375;-64
2022/03/01 08:42:31;;;;;;;;;;;;;;;17.00;40.13;101634.53;5064030;28;1298;-68
2022/03/01 08:44:57;;;;;;;;;;;;;;;16.86;40.64;101631.28;5056047;28;1295;-68
2022/03/01 08:47:23;;;;;;;;;;;;;;;16.98;40.60;101628.44;5057459;28;1965;-64
2022/03/01 08:49:49;;;;;;;;;;;;;;;18.15;37.96;101638.19;5057865;28;1318;-65
2022/03/01 08:52:14;;;;;;;;;;;;;;;19.17;35.71;101628.03;5053608;28;1315;-63
2022/03/01 08:54:40;;;;;;;;;;;;;;;18.28;37.69;101634.97;5062805;28;1259;-63
2022/03/01 08:57:05;;;;;;;;;;;;;;;17.90;38.57;101634.09;5055944;28;1187;-65
2022/03/01 08:59:31;;;;;;;;;;;;;;;17.38;39.40;101640.19;5056954;28;1302;-64
2022/03/01 09:01:58;;;;;;;;;;;;;;;16.87;40.12;101637.59;5048800;28;1329;-70
2022/03/01 09:04:23;;;;;;;;;;;;;;;17.53;39.78;101634.00;5051153;28;1319;-72
2022/03/01 09:06:49;;;;;;;;;;;;;;;17.82;38.66;101640.06;5055081;28;1906;-71
2022/03/01 09:09:14;;;;;;;;;;;;;;;17.41;39.71;101636.94;5054957;28;1287;-70
2022/03/01 09:11:40;;;;;;;;;;;;;;;17.02;40.23;101626.84;5056079;28;1331;-65
2022/03/01 09:14:05;;;;;;;;;;;;;;;16.74;41.23;101634.16;5049708;28;1331;-65
2022/03/01 09:16:31;;;;;;;;;;;;;;;16.88;40.96;101629.16;5071411;28;1396;-65
2022/03/01 09:18:56;;;;;;;;;;;;;;;17.13;40.22;101635.22;5075203;28;1423;-66
2022/03/01 09:21:22;;;;;;;;;;;;;;;17.53;39.63;101618.38;5076026;28;1472;-69
2022/03/01 09:23:47;;;;;;;;;;;;;;;17.68;39.01;101630.59;5075657;28;1298;-71
2022/03/01 09:26:13;;;;;;;;;;;;;;;17.75;39.09;101626.56;5076135;28;1905;-67
2022/03/01 09:28:38;;;;;;;;;;;;;;;17.27;39.84;101634.56;5074619;28;1366;-66
2022/03/01 09:31:04;;;;;;;;;;;;;;;17.13;40.24;101627.00;5072543;28;1229;-67
2022/03/01 09:33:29;;;;;;;;;;;;;;;16.92;40.60;101623.97;5077116;28;1322;-66
2022/03/01 09:35:55;;;;;;;;;;;;;;;16.67;41.13;101621.69;5078523;28;1353;-65
2022/03/01 09:38:21;;;;;;;;;;;;;;;16.78;40.77;101629.00;5075807;28;1301;-66
2022/03/01 09:40:46;;;;;;;;;;;;;;;17.03;40.46;101620.28;5075384;28;868;-65
2022/03/01 09:43:12;;;;;;;;;;;;;;;17.39;39.52;101625.34;5075208;28;1352;-64
2022/03/01 09:45:37;;;;;;;;;;;;;;;17.70;38.99;101615.50;5079572;28;1914;-63
2022/03/01 09:48:03;;;;;;;;;;;;;;;17.86;38.45;101618.38;5074966;28;903;-68
2022/03/01 09:50:29;;;;;;;;;;;;;;;17.61;38.86;101619.78;5075459;28;1538;-69
2022/03/01 09:52:55;;;;;;;;;;;;;;;17.24;39.45;101615.03;5075562;28;1601;-68
2022/03/01 09:55:21;;;;;;;;;;;;;;;16.91;40.33;101616.81;5079356;28;1284;-69
2022/03/01 09:57:47;;;;;;;;;;;;;;;16.77;40.71;101622.66;5071748;28;1254;-70
2022/03/01 10:00:12;;;;;;;;;;;;;;;16.64;41.07;101622.22;5074525;28;1195;-69
2022/03/01 10:02:40;;;;;;;;;;;;;;;16.57;41.26;101617.72;5076688;28;1254;-67
2022/03/01 10:05:06;;;;;;;;;;;;;;;16.83;40.96;101620.81;5078836;28;1443;-69
2022/03/01 10:07:31;;;;;;;;;;;;;;;17.27;39.75;101620.00;5076286;28;1909;-67
2022/03/01 10:10:07;;;;;;;;;;;;;;;18.17;38.05;101618.66;5075959;28;1462;-73
2022/03/01 10:12:32;;;;;;;;;;;;;;;17.53;39.18;101612.88;5073262;28;1330;-69
2022/03/01 10:14:59;;;;;;;;;;;;;;;16.91;40.26;101616.81;5073674;28;1330;-68
2022/03/01 10:17:37;;;;;;;;;;;;;;;16.70;40.75;101613.75;5073022;28;1314;-70
2022/03/01 10:20:07;;;;;;;;;;;;;;;16.71;41.16;101612.69;5077586;28;1084;-65
2022/03/01 10:22:32;;;;;;;;;;;;;;;16.87;40.83;101604.66;5075999;28;1254;-70
2022/03/01 10:25:07;;;;;;;;;;;;;;;17.21;40.04;101608.13;5075658;28;1228;-66
2022/03/01 10:27:33;;;;;;;;;;;;;;;17.52;39.16;101605.69;5072570;28;1980;-69
2022/03/01 10:29:59;;;;;;;;;;;;;;;17.84;38.87;101607.66;5073169;28;1581;-64
2022/03/01 10:32:25;;;;;;;;;;;;;;;17.83;38.61;101594.16;5073215;28;1298;-67
2022/03/01 10:34:58;;;;;;;;;;;;;;;17.64;38.82;101583.53;5073340;28;1302;-69
2022/03/01 10:37:29;;;;;;;;;;;;;;;17.24;39.57;101587.53;5073552;28;1318;-67
2022/03/01 10:40:09;;;;;;;;;;;;;;;16.90;40.57;101587.69;5074026;28;1542;-67
2022/03/01 10:42:35;;;;;;;;;;;;;;;16.78;40.94;101590.53;5076382;28;1511;-68
2022/03/01 10:45:00;;;;;;;;;;;;;;;16.69;40.89;101590.16;5076119;28;1426;-65
2022/03/01 10:47:25;;;;;;;;;;;;;;;16.76;40.86;101593.53;5077614;28;1898;-65
2022/03/01 10:49:59;;;;;;;;;;;;;;;17.18;40.26;101594.91;5079499;28;1380;-68
2022/03/01 10:52:30;;;;;;;;;;;;;;;17.65;39.09;101589.88;5078278;28;1486;-65
2022/03/01 10:54:56;;;;;;;;;;;;;;;17.91;38.62;101585.44;5109299;28;1408;-66
2022/03/01 10:57:22;;;;;;;;;;;;;;;17.86;38.47;101582.63;5077948;28;1424;-66
2022/03/01 10:59:47;;;;;;;;;;;;;;;17.46;39.20;101582.00;5079677;28;1217;-63
2022/03/01 11:02:13;;;;;;;;;;;;;;;17.01;40.31;101572.16;5076664;28;1298;-66
2022/03/01 11:04:38;;;;;;;;;;;;;;;16.91;40.26;101579.22;5080654;28;1300;-66
2022/03/01 11:07:04;;;;;;;;;;;;;;;17.65;39.10;101576.94;5078606;28;1971;-65
2022/03/01 11:09:30;;;;;;;;;;;;;;;19.02;36.07;101570.94;5074461;28;1276;-69
2022/03/01 11:11:56;;;;;;;;;;;;;;;18.83;36.38;101578.84;5075681;28;1238;-67
2022/03/01 11:14:41;;;;;;;;;;;;;;;17.95;38.20;101586.59;5076942;28;1355;-67
2022/03/01 11:17:24;;;;;;;;;;;;;;;17.83;38.71;101585.91;5017425;28;1474;-62
2022/03/01 11:20:22;;;;;;;;;;;;;;;19.11;35.97;101578.41;5057850;28;1570;-61
2022/03/01 11:22:57;;;;;;;;;;;;;;;18.35;37.20;101574.19;5044639;28;1467;-63
2022/03/01 11:25:23;;;;;;;;;;;;;;;17.78;38.35;101578.41;5057225;28;1436;-63
2022/03/01 11:27:50;;;;;;;;;;;;;;;17.75;38.77;101571.53;5064106;28;1913;-62
2022/03/01 11:30:15;;;;;;;;;;;;;;;18.68;36.74;101563.06;5038453;28;2078;-62
2022/03/01 11:32:42;;;;;;;;;;;;;;;18.65;36.38;101572.72;5058607;28;1278;-63
2022/03/01 11:35:14;;;;;;;;;;;;;;;17.90;38.15;101568.06;5053564;28;1456;-62
2022/03/01 11:37:40;;;;;;;;;;;;;;;17.87;38.39;101579.59;5056057;28;1433;-62
2022/03/01 11:40:06;;;;;;;;;;;;;;;18.66;36.86;101570.78;5043269;28;1340;-64
2022/03/01 11:42:32;;;;;;;;;;;;;;;18.67;36.61;101561.41;5057463;28;1392;-63
2022/03/01 11:45:05;;;;;;;;;;;;;;;17.90;38.07;101565.31;5052919;28;1380;-60
2022/03/01 11:47:31;;;;;;;;;;;;;;;17.52;39.15;101566.38;5039184;28;1972;-61
2022/03/01 11:49:57;;;;;;;;;;;;;;;17.14;39.51;101566.28;5058022;28;1319;-60
2022/03/01 11:52:25;;;;;;;;;;;;;;;17.58;39.29;101571.63;5056105;28;1231;-62
2022/03/01 11:54:51;;;;;;;;;;;;;;;17.56;38.94;101567.53;5051059;28;1200;-61
2022/03/01 11:57:18;;;;;;;;;;;;;;;17.26;39.48;101566.09;5056464;28;888;-65
2022/03/01 11:59:44;;;;;;;;;;;;;;;17.00;39.72;101559.50;5040540;28;1452;-61
2022/03/01 12:02:10;;;;;;;;;;;;;;;17.03;40.44;101565.31;5056525;28;1463;-62
2022/03/01 12:04:46;;;;;;;;;;;;;;;17.78;38.80;101564.66;5055728;28;1313;-64
2022/03/01 12:07:13;;;;;;;;;;;;;;;17.36;39.44;101566.22;5049089;28;1978;-61
2022/03/01 12:09:39;;;;;;;;;;;;;;;16.98;40.23;101567.19;5051675;28;1318;-64
2022/03/01 12:12:06;;;;;;;;;;;;;;;16.87;40.42;101568.94;5050284;28;1421;-63
2022/03/01 12:14:34;;;;;;;;;;;;;;;16.84;40.65;101574.94;5059509;28;1455;-62
2022/03/01 12:16:59;;;;;;;;;;;;;;;16.75;40.84;101566.34;5079139;28;741;-63
2022/03/01 12:19:27;;;;;;;;;;;;;;;16.81;41.00;101572.72;5081390;28;1234;-63
2022/03/01 12:21:53;;;;;;;;;;;;;;;17.05;40.22;101563.13;5108432;27;1490;-62
2022/03/01 12:24:19;;;;;;;;;;;;;;;17.50;39.51;101563.03;5076651;28;1215;-64
2022/03/01 12:26:52;;;;;;;;;;;;;;;17.88;38.56;101559.25;5076731;28;1917;-62
2022/03/01 12:29:18;;;;;;;;;;;;;;;18.07;37.96;101562.44;5075900;28;1268;-65
2022/03/01 12:31:43;;;;;;;;;;;;;;;17.98;38.18;101564.03;5076198;28;1237;-70
2022/03/01 12:34:09;;;;;;;;;;;;;;;17.59;39.15;101567.81;5102858;28;1663;-65
2022/03/01 12:36:35;;;;;;;;;;;;;;;17.16;40.04;101564.06;5075209;28;1326;-63
2022/03/01 12:39:08;;;;;;;;;;;;;;;16.94;40.38;101566.84;5076718;28;1281;-66
2022/03/01 12:41:34;;;;;;;;;;;;;;;16.90;40.47;101576.69;5076402;28;1253;-63
2022/03/01 12:44:00;;;;;;;;;;;;;;;17.03;40.39;101572.75;5076379;28;1434;-66